sensor_id;sensor_type;location;lat;lon;timestamp;P1;durP1;ratioP1;P2;durP2;ratioP2
68680;SDS011;55836;49.858;6.756;2022-07-29T00:02:28;4.10;;;1.90;;
68680;SDS011;55836;49.858;6.756;2022-07-29T00:04:53;5.53;;;2.30;;
68680;SDS011;55836;49.858;6.756;2022-07-29T00:07:19;4.17;;;1.80;;
68680;SDS011;55836;49.858;6.756;2022-07-29T00:09:45;4.50;;;2.30;;
68680;SDS011;55836;49.858;6.756;2022-07-29T00:12:11;5.20;;;2.40;;
68680;SDS011;55836;49.858;6.756;2022-07-29T00:14:36;5.70;;;2.13;;
68680;SDS011;55836;49.858;6.756;2022-07-29T00:17:02;5.77;;;2.20;;
68680;SDS011;55836;49.858;6.756;2022-07-29T00:19:28;2.77;;;2.00;;
68680;SDS011;55836;49.858;6.756;2022-07-29T00:21:53;7.07;;;2.30;;
68680;SDS011;55836;49.858;6.756;2022-07-29T00:24:19;5.53;;;2.03;;
68680;SDS011;55836;49.858;6.756;2022-07-29T00:26:45;4.07;;;2.10;;
68680;SDS011;55836;49.858;6.756;2022-07-29T00:29:10;3.70;;;1.97;;
68680;SDS011;55836;49.858;6.756;2022-07-29T00:31:36;5.60;;;2.00;;
68680;SDS011;55836;49.858;6.756;2022-07-29T00:34:02;4.67;;;1.97;;
68680;SDS011;55836;49.858;6.756;2022-07-29T00:36:27;4.37;;;2.33;;
68680;SDS011;55836;49.858;6.756;2022-07-29T00:38:53;4.10;;;2.10;;
68680;SDS011;55836;49.858;6.756;2022-07-29T00:41:19;5.73;;;2.10;;
68680;SDS011;55836;49.858;6.756;2022-07-29T00:43:45;4.17;;;2.00;;
68680;SDS011;55836;49.858;6.756;2022-07-29T00:46:11;2.87;;;1.90;;
68680;SDS011;55836;49.858;6.756;2022-07-29T00:48:36;3.50;;;2.20;;
68680;SDS011;55836;49.858;6.756;2022-07-29T00:51:03;3.50;;;2.17;;
68680;SDS011;55836;49.858;6.756;2022-07-29T00:53:30;5.10;;;2.03;;
68680;SDS011;55836;49.858;6.756;2022-07-29T00:55:56;4.97;;;2.13;;
68680;SDS011;55836;49.858;6.756;2022-07-29T00:58:23;5.10;;;1.90;;
68680;SDS011;55836;49.858;6.756;2022-07-29T01:00:49;3.53;;;1.93;;
68680;SDS011;55836;49.858;6.756;2022-07-29T01:03:15;5.80;;;2.30;;
68680;SDS011;55836;49.858;6.756;2022-07-29T01:05:41;3.57;;;1.70;;
68680;SDS011;55836;49.858;6.756;2022-07-29T01:08:10;6.93;;;2.40;;
68680;SDS011;55836;49.858;6.756;2022-07-29T01:10:38;4.93;;;1.97;;
68680;SDS011;55836;49.858;6.756;2022-07-29T01:13:05;3.13;;;2.00;;
68680;SDS011;55836;49.858;6.756;2022-07-29T01:15:33;4.23;;;2.10;;
68680;SDS011;55836;49.858;6.756;2022-07-29T01:18:07;5.73;;;2.40;;
68680;SDS011;55836;49.858;6.756;2022-07-29T01:26:27;3.93;;;2.40;;
68680;SDS011;55836;49.858;6.756;2022-07-29T01:34:53;2.73;;;2.10;;
68680;SDS011;55836;49.858;6.756;2022-07-29T01:37:21;2.40;;;1.90;;
68680;SDS011;55836;49.858;6.756;2022-07-29T01:40:16;3.37;;;1.90;;
68680;SDS011;55836;49.858;6.756;2022-07-29T01:42:51;3.87;;;2.00;;
68680;SDS011;55836;49.858;6.756;2022-07-29T01:45:20;4.23;;;2.10;;
68680;SDS011;55836;49.858;6.756;2022-07-29T01:53:38;3.57;;;2.07;;
68680;SDS011;55836;49.858;6.756;2022-07-29T01:56:11;7.40;;;1.93;;
68680;SDS011;55836;49.858;6.756;2022-07-29T01:58:39;2.43;;;2.10;;
68680;SDS011;55836;49.858;6.756;2022-07-29T02:01:06;5.07;;;2.20;;
68680;SDS011;55836;49.858;6.756;2022-07-29T02:03:34;2.77;;;1.87;;
68680;SDS011;55836;49.858;6.756;2022-07-29T02:06:01;4.37;;;2.30;;
68680;SDS011;55836;49.858;6.756;2022-07-29T02:08:29;4.17;;;2.07;;
68680;SDS011;55836;49.858;6.756;2022-07-29T02:10:57;4.87;;;2.17;;
68680;SDS011;55836;49.858;6.756;2022-07-29T02:13:26;4.57;;;2.00;;
68680;SDS011;55836;49.858;6.756;2022-07-29T02:15:54;2.70;;;1.80;;
68680;SDS011;55836;49.858;6.756;2022-07-29T02:18:22;4.07;;;1.80;;
68680;SDS011;55836;49.858;6.756;2022-07-29T02:20:50;6.20;;;2.03;;
68680;SDS011;55836;49.858;6.756;2022-07-29T02:23:20;3.50;;;2.00;;
68680;SDS011;55836;49.858;6.756;2022-07-29T02:25:48;3.90;;;1.90;;
68680;SDS011;55836;49.858;6.756;2022-07-29T02:28:16;3.43;;;1.97;;
68680;SDS011;55836;49.858;6.756;2022-07-29T02:30:44;3.10;;;2.20;;
68680;SDS011;55836;49.858;6.756;2022-07-29T02:33:12;2.87;;;1.90;;
68680;SDS011;55836;49.858;6.756;2022-07-29T02:35:40;8.43;;;2.20;;
68680;SDS011;55836;49.858;6.756;2022-07-29T02:38:08;2.90;;;1.97;;
68680;SDS011;55836;49.858;6.756;2022-07-29T02:40:56;5.33;;;1.90;;
68680;SDS011;55836;49.858;6.756;2022-07-29T02:43:26;3.30;;;2.30;;
68680;SDS011;55836;49.858;6.756;2022-07-29T02:45:52;7.37;;;2.93;;
68680;SDS011;55836;49.858;6.756;2022-07-29T02:48:22;9.57;;;3.53;;
68680;SDS011;55836;49.858;6.756;2022-07-29T02:51:01;6.00;;;3.00;;
68680;SDS011;55836;49.858;6.756;2022-07-29T02:53:33;5.87;;;2.97;;
68680;SDS011;55836;49.858;6.756;2022-07-29T02:56:04;6.03;;;2.47;;
68680;SDS011;55836;49.858;6.756;2022-07-29T02:58:39;4.90;;;2.10;;
68680;SDS011;55836;49.858;6.756;2022-07-29T03:01:14;3.03;;;2.20;;
68680;SDS011;55836;49.858;6.756;2022-07-29T03:03:45;3.73;;;2.27;;
68680;SDS011;55836;49.858;6.756;2022-07-29T03:06:13;3.07;;;2.37;;
68680;SDS011;55836;49.858;6.756;2022-07-29T03:08:40;4.90;;;2.60;;
68680;SDS011;55836;49.858;6.756;2022-07-29T03:11:07;4.67;;;2.57;;
68680;SDS011;55836;49.858;6.756;2022-07-29T03:13:34;5.33;;;2.90;;
68680;SDS011;55836;49.858;6.756;2022-07-29T03:16:00;4.97;;;2.57;;
68680;SDS011;55836;49.858;6.756;2022-07-29T03:18:27;6.50;;;2.60;;
68680;SDS011;55836;49.858;6.756;2022-07-29T03:20:54;6.93;;;2.60;;
68680;SDS011;55836;49.858;6.756;2022-07-29T03:23:21;2.83;;;2.30;;
68680;SDS011;55836;49.858;6.756;2022-07-29T03:25:52;5.53;;;2.30;;
68680;SDS011;55836;49.858;6.756;2022-07-29T03:28:18;7.23;;;2.60;;
68680;SDS011;55836;49.858;6.756;2022-07-29T03:30:44;6.63;;;2.40;;
68680;SDS011;55836;49.858;6.756;2022-07-29T03:33:10;4.37;;;2.20;;
68680;SDS011;55836;49.858;6.756;2022-07-29T03:35:36;4.90;;;2.00;;
68680;SDS011;55836;49.858;6.756;2022-07-29T03:38:02;2.50;;;2.30;;
68680;SDS011;55836;49.858;6.756;2022-07-29T03:40:38;3.27;;;2.40;;
68680;SDS011;55836;49.858;6.756;2022-07-29T03:43:09;3.57;;;2.53;;
68680;SDS011;55836;49.858;6.756;2022-07-29T03:45:36;4.00;;;2.53;;
68680;SDS011;55836;49.858;6.756;2022-07-29T03:48:07;4.60;;;2.30;;
68680;SDS011;55836;49.858;6.756;2022-07-29T03:50:36;3.30;;;2.33;;
68680;SDS011;55836;49.858;6.756;2022-07-29T03:53:02;2.70;;;2.13;;
68680;SDS011;55836;49.858;6.756;2022-07-29T03:55:29;3.97;;;2.17;;
68680;SDS011;55836;49.858;6.756;2022-07-29T03:57:58;4.37;;;2.27;;
68680;SDS011;55836;49.858;6.756;2022-07-29T04:00:25;4.07;;;2.27;;
68680;SDS011;55836;49.858;6.756;2022-07-29T04:02:52;3.30;;;2.20;;
68680;SDS011;55836;49.858;6.756;2022-07-29T04:05:18;3.87;;;2.47;;
68680;SDS011;55836;49.858;6.756;2022-07-29T04:07:44;3.63;;;2.30;;
68680;SDS011;55836;49.858;6.756;2022-07-29T04:10:11;4.53;;;2.67;;
68680;SDS011;55836;49.858;6.756;2022-07-29T04:12:37;3.10;;;2.63;;
68680;SDS011;55836;49.858;6.756;2022-07-29T04:15:03;2.53;;;2.10;;
68680;SDS011;55836;49.858;6.756;2022-07-29T04:17:30;3.00;;;2.40;;
68680;SDS011;55836;49.858;6.756;2022-07-29T04:19:55;3.80;;;2.27;;
68680;SDS011;55836;49.858;6.756;2022-07-29T04:22:21;4.80;;;2.17;;
68680;SDS011;55836;49.858;6.756;2022-07-29T04:24:47;3.73;;;1.87;;
68680;SDS011;55836;49.858;6.756;2022-07-29T04:27:12;3.50;;;2.20;;
68680;SDS011;55836;49.858;6.756;2022-07-29T04:29:38;2.57;;;2.13;;
68680;SDS011;55836;49.858;6.756;2022-07-29T04:32:04;3.13;;;2.00;;
68680;SDS011;55836;49.858;6.756;2022-07-29T04:34:30;4.80;;;2.27;;
68680;SDS011;55836;49.858;6.756;2022-07-29T04:36:56;2.67;;;2.20;;
68680;SDS011;55836;49.858;6.756;2022-07-29T04:39:21;4.30;;;1.83;;
68680;SDS011;55836;49.858;6.756;2022-07-29T04:41:47;2.97;;;2.17;;
68680;SDS011;55836;49.858;6.756;2022-07-29T04:44:14;6.67;;;2.27;;
68680;SDS011;55836;49.858;6.756;2022-07-29T04:46:39;5.40;;;2.20;;
68680;SDS011;55836;49.858;6.756;2022-07-29T04:49:05;2.20;;;2.00;;
68680;SDS011;55836;49.858;6.756;2022-07-29T04:51:31;2.63;;;2.10;;
68680;SDS011;55836;49.858;6.756;2022-07-29T04:53:56;3.23;;;2.00;;
68680;SDS011;55836;49.858;6.756;2022-07-29T04:56:22;3.13;;;1.90;;
68680;SDS011;55836;49.858;6.756;2022-07-29T04:58:48;4.50;;;2.50;;
68680;SDS011;55836;49.858;6.756;2022-07-29T05:01:14;3.23;;;2.30;;
68680;SDS011;55836;49.858;6.756;2022-07-29T05:03:39;3.77;;;2.40;;
68680;SDS011;55836;49.858;6.756;2022-07-29T05:06:05;6.63;;;3.00;;
68680;SDS011;55836;49.858;6.756;2022-07-29T05:08:31;6.20;;;2.53;;
68680;SDS011;55836;49.858;6.756;2022-07-29T05:10:57;3.27;;;2.30;;
68680;SDS011;55836;49.858;6.756;2022-07-29T05:13:22;10.33;;;2.90;;
68680;SDS011;55836;49.858;6.756;2022-07-29T05:15:48;3.93;;;2.83;;
68680;SDS011;55836;49.858;6.756;2022-07-29T05:18:14;5.20;;;2.37;;
68680;SDS011;55836;49.858;6.756;2022-07-29T05:20:40;4.80;;;2.80;;
68680;SDS011;55836;49.858;6.756;2022-07-29T05:23:09;7.40;;;3.20;;
68680;SDS011;55836;49.858;6.756;2022-07-29T05:25:37;5.83;;;2.50;;
68680;SDS011;55836;49.858;6.756;2022-07-29T05:28:03;4.10;;;2.40;;
68680;SDS011;55836;49.858;6.756;2022-07-29T05:30:32;2.87;;;2.30;;
68680;SDS011;55836;49.858;6.756;2022-07-29T05:32:57;6.00;;;2.90;;
68680;SDS011;55836;49.858;6.756;2022-07-29T05:35:23;3.97;;;2.40;;
68680;SDS011;55836;49.858;6.756;2022-07-29T05:37:49;6.13;;;2.80;;
68680;SDS011;55836;49.858;6.756;2022-07-29T05:40:15;3.67;;;2.57;;
68680;SDS011;55836;49.858;6.756;2022-07-29T05:42:41;6.13;;;2.70;;
68680;SDS011;55836;49.858;6.756;2022-07-29T05:45:06;5.03;;;2.50;;
68680;SDS011;55836;49.858;6.756;2022-07-29T05:47:33;3.40;;;2.07;;
68680;SDS011;55836;49.858;6.756;2022-07-29T05:49:59;4.07;;;2.53;;
68680;SDS011;55836;49.858;6.756;2022-07-29T05:52:25;4.00;;;2.70;;
68680;SDS011;55836;49.858;6.756;2022-07-29T05:54:50;4.27;;;2.60;;
68680;SDS011;55836;49.858;6.756;2022-07-29T05:57:17;6.27;;;2.73;;
68680;SDS011;55836;49.858;6.756;2022-07-29T05:59:47;6.67;;;3.20;;
68680;SDS011;55836;49.858;6.756;2022-07-29T06:02:13;8.93;;;2.80;;
68680;SDS011;55836;49.858;6.756;2022-07-29T06:04:39;5.13;;;2.90;;
68680;SDS011;55836;49.858;6.756;2022-07-29T06:07:05;4.90;;;2.87;;
68680;SDS011;55836;49.858;6.756;2022-07-29T06:09:31;5.30;;;2.60;;
68680;SDS011;55836;49.858;6.756;2022-07-29T06:11:57;4.70;;;2.70;;
68680;SDS011;55836;49.858;6.756;2022-07-29T06:14:23;3.50;;;2.53;;
68680;SDS011;55836;49.858;6.756;2022-07-29T06:16:49;4.77;;;2.80;;
68680;SDS011;55836;49.858;6.756;2022-07-29T06:19:15;4.30;;;2.73;;
68680;SDS011;55836;49.858;6.756;2022-07-29T06:21:41;5.10;;;2.60;;
68680;SDS011;55836;49.858;6.756;2022-07-29T06:24:08;3.43;;;2.70;;
68680;SDS011;55836;49.858;6.756;2022-07-29T06:26:35;3.33;;;2.70;;
68680;SDS011;55836;49.858;6.756;2022-07-29T06:29:01;3.83;;;2.10;;
68680;SDS011;55836;49.858;6.756;2022-07-29T06:31:26;5.20;;;2.60;;
68680;SDS011;55836;49.858;6.756;2022-07-29T06:33:52;4.80;;;2.27;;
68680;SDS011;55836;49.858;6.756;2022-07-29T06:36:18;6.10;;;2.30;;
68680;SDS011;55836;49.858;6.756;2022-07-29T06:38:43;3.47;;;2.50;;
68680;SDS011;55836;49.858;6.756;2022-07-29T06:41:09;4.33;;;2.50;;
68680;SDS011;55836;49.858;6.756;2022-07-29T06:43:40;3.60;;;2.50;;
68680;SDS011;55836;49.858;6.756;2022-07-29T06:46:08;6.03;;;3.13;;
68680;SDS011;55836;49.858;6.756;2022-07-29T06:48:35;7.03;;;2.27;;
68680;SDS011;55836;49.858;6.756;2022-07-29T06:51:02;5.67;;;2.47;;
68680;SDS011;55836;49.858;6.756;2022-07-29T06:53:28;5.27;;;2.40;;
68680;SDS011;55836;49.858;6.756;2022-07-29T06:55:55;7.00;;;3.20;;
68680;SDS011;55836;49.858;6.756;2022-07-29T06:58:21;12.50;;;3.00;;
68680;SDS011;55836;49.858;6.756;2022-07-29T07:00:47;13.70;;;2.90;;
68680;SDS011;55836;49.858;6.756;2022-07-29T07:03:13;12.23;;;2.93;;
68680;SDS011;55836;49.858;6.756;2022-07-29T07:05:40;16.63;;;3.20;;
68680;SDS011;55836;49.858;6.756;2022-07-29T07:08:05;8.40;;;3.03;;
68680;SDS011;55836;49.858;6.756;2022-07-29T07:10:33;9.43;;;2.90;;
68680;SDS011;55836;49.858;6.756;2022-07-29T07:12:59;8.10;;;2.43;;
68680;SDS011;55836;49.858;6.756;2022-07-29T07:15:25;6.23;;;2.20;;
68680;SDS011;55836;49.858;6.756;2022-07-29T07:17:52;4.63;;;2.30;;
68680;SDS011;55836;49.858;6.756;2022-07-29T07:20:17;12.70;;;2.70;;
68680;SDS011;55836;49.858;6.756;2022-07-29T07:22:43;6.77;;;2.63;;
68680;SDS011;55836;49.858;6.756;2022-07-29T07:25:09;3.53;;;2.33;;
68680;SDS011;55836;49.858;6.756;2022-07-29T07:27:36;5.97;;;2.20;;
68680;SDS011;55836;49.858;6.756;2022-07-29T07:30:03;5.27;;;2.47;;
68680;SDS011;55836;49.858;6.756;2022-07-29T07:32:30;6.67;;;2.27;;
68680;SDS011;55836;49.858;6.756;2022-07-29T07:34:57;4.27;;;2.00;;
68680;SDS011;55836;49.858;6.756;2022-07-29T07:37:23;5.93;;;2.57;;
68680;SDS011;55836;49.858;6.756;2022-07-29T07:39:50;6.37;;;2.23;;
68680;SDS011;55836;49.858;6.756;2022-07-29T07:42:16;3.07;;;1.97;;
68680;SDS011;55836;49.858;6.756;2022-07-29T07:44:42;4.03;;;2.10;;
68680;SDS011;55836;49.858;6.756;2022-07-29T07:47:08;6.07;;;2.87;;
68680;SDS011;55836;49.858;6.756;2022-07-29T07:49:34;5.57;;;2.67;;
68680;SDS011;55836;49.858;6.756;2022-07-29T07:52:00;4.83;;;2.17;;
68680;SDS011;55836;49.858;6.756;2022-07-29T07:54:25;3.30;;;1.97;;
68680;SDS011;55836;49.858;6.756;2022-07-29T07:56:51;4.03;;;1.93;;
68680;SDS011;55836;49.858;6.756;2022-07-29T07:59:17;4.00;;;1.93;;
68680;SDS011;55836;49.858;6.756;2022-07-29T08:01:42;3.10;;;2.00;;
68680;SDS011;55836;49.858;6.756;2022-07-29T08:04:08;6.87;;;2.50;;
68680;SDS011;55836;49.858;6.756;2022-07-29T08:06:34;5.93;;;2.17;;
68680;SDS011;55836;49.858;6.756;2022-07-29T08:09:01;3.17;;;2.00;;
68680;SDS011;55836;49.858;6.756;2022-07-29T08:11:28;6.53;;;2.13;;
68680;SDS011;55836;49.858;6.756;2022-07-29T08:13:53;5.33;;;2.30;;
68680;SDS011;55836;49.858;6.756;2022-07-29T08:16:19;4.50;;;2.50;;
68680;SDS011;55836;49.858;6.756;2022-07-29T08:18:45;4.13;;;2.47;;
68680;SDS011;55836;49.858;6.756;2022-07-29T08:21:11;4.77;;;2.20;;
68680;SDS011;55836;49.858;6.756;2022-07-29T08:23:37;3.40;;;2.10;;
68680;SDS011;55836;49.858;6.756;2022-07-29T08:26:04;3.77;;;2.27;;
68680;SDS011;55836;49.858;6.756;2022-07-29T08:28:31;3.57;;;2.23;;
68680;SDS011;55836;49.858;6.756;2022-07-29T08:30:56;3.33;;;2.13;;
68680;SDS011;55836;49.858;6.756;2022-07-29T08:33:22;3.53;;;2.30;;
68680;SDS011;55836;49.858;6.756;2022-07-29T08:35:48;4.90;;;2.53;;
68680;SDS011;55836;49.858;6.756;2022-07-29T08:38:15;4.17;;;3.07;;
68680;SDS011;55836;49.858;6.756;2022-07-29T08:40:40;4.23;;;3.03;;
68680;SDS011;55836;49.858;6.756;2022-07-29T08:43:07;3.60;;;2.73;;
68680;SDS011;55836;49.858;6.756;2022-07-29T08:45:43;4.53;;;2.40;;
68680;SDS011;55836;49.858;6.756;2022-07-29T08:48:14;7.33;;;2.60;;
68680;SDS011;55836;49.858;6.756;2022-07-29T08:50:41;5.00;;;2.90;;
68680;SDS011;55836;49.858;6.756;2022-07-29T08:53:12;6.93;;;3.00;;
68680;SDS011;55836;49.858;6.756;2022-07-29T08:55:42;4.73;;;2.57;;
68680;SDS011;55836;49.858;6.756;2022-07-29T08:58:10;9.30;;;3.07;;
68680;SDS011;55836;49.858;6.756;2022-07-29T09:00:36;5.57;;;3.23;;
68680;SDS011;55836;49.858;6.756;2022-07-29T09:03:05;4.70;;;2.53;;
68680;SDS011;55836;49.858;6.756;2022-07-29T09:05:32;5.73;;;2.87;;
68680;SDS011;55836;49.858;6.756;2022-07-29T09:08:06;6.87;;;2.70;;
68680;SDS011;55836;49.858;6.756;2022-07-29T09:10:34;5.97;;;2.73;;
68680;SDS011;55836;49.858;6.756;2022-07-29T09:13:03;5.53;;;3.07;;
68680;SDS011;55836;49.858;6.756;2022-07-29T09:15:29;7.10;;;3.20;;
68680;SDS011;55836;49.858;6.756;2022-07-29T09:17:54;4.57;;;2.60;;
68680;SDS011;55836;49.858;6.756;2022-07-29T09:20:21;9.07;;;2.70;;
68680;SDS011;55836;49.858;6.756;2022-07-29T09:22:48;4.47;;;2.73;;
68680;SDS011;55836;49.858;6.756;2022-07-29T09:30:33;4.43;;;2.50;;
68680;SDS011;55836;49.858;6.756;2022-07-29T09:32:59;7.30;;;2.83;;
68680;SDS011;55836;49.858;6.756;2022-07-29T09:35:27;6.90;;;3.00;;
68680;SDS011;55836;49.858;6.756;2022-07-29T09:37:54;7.40;;;3.10;;
68680;SDS011;55836;49.858;6.756;2022-07-29T09:40:24;4.60;;;3.07;;
68680;SDS011;55836;49.858;6.756;2022-07-29T09:42:51;13.23;;;3.20;;
68680;SDS011;55836;49.858;6.756;2022-07-29T09:45:30;10.83;;;3.13;;
68680;SDS011;55836;49.858;6.756;2022-07-29T09:47:57;6.20;;;2.83;;
68680;SDS011;55836;49.858;6.756;2022-07-29T09:50:37;7.03;;;2.80;;
68680;SDS011;55836;49.858;6.756;2022-07-29T09:53:04;6.90;;;3.20;;
68680;SDS011;55836;49.858;6.756;2022-07-29T09:55:29;3.73;;;2.70;;
68680;SDS011;55836;49.858;6.756;2022-07-29T09:57:59;7.03;;;3.10;;
68680;SDS011;55836;49.858;6.756;2022-07-29T10:00:41;4.77;;;3.17;;
68680;SDS011;55836;49.858;6.756;2022-07-29T10:03:09;8.13;;;2.77;;
68680;SDS011;55836;49.858;6.756;2022-07-29T10:05:36;3.83;;;3.00;;
68680;SDS011;55836;49.858;6.756;2022-07-29T10:08:02;4.00;;;2.97;;
68680;SDS011;55836;49.858;6.756;2022-07-29T10:10:29;6.23;;;2.80;;
68680;SDS011;55836;49.858;6.756;2022-07-29T10:12:57;10.60;;;3.07;;
68680;SDS011;55836;49.858;6.756;2022-07-29T10:15:24;4.53;;;3.13;;
68680;SDS011;55836;49.858;6.756;2022-07-29T10:17:52;5.17;;;2.73;;
68680;SDS011;55836;49.858;6.756;2022-07-29T10:20:19;5.97;;;2.77;;
68680;SDS011;55836;49.858;6.756;2022-07-29T10:22:46;5.30;;;2.50;;
68680;SDS011;55836;49.858;6.756;2022-07-29T10:25:13;4.33;;;2.80;;
68680;SDS011;55836;49.858;6.756;2022-07-29T10:27:41;3.57;;;2.47;;
68680;SDS011;55836;49.858;6.756;2022-07-29T10:30:07;6.33;;;2.80;;
68680;SDS011;55836;49.858;6.756;2022-07-29T10:35:38;6.83;;;2.37;;
68680;SDS011;55836;49.858;6.756;2022-07-29T10:44:23;4.17;;;2.17;;
68680;SDS011;55836;49.858;6.756;2022-07-29T10:46:50;2.70;;;2.47;;
68680;SDS011;55836;49.858;6.756;2022-07-29T10:49:17;3.13;;;2.13;;
68680;SDS011;55836;49.858;6.756;2022-07-29T11:05:05;2.50;;;2.00;;
68680;SDS011;55836;49.858;6.756;2022-07-29T11:07:32;3.83;;;2.10;;
68680;SDS011;55836;49.858;6.756;2022-07-29T11:18:20;3.73;;;2.40;;
68680;SDS011;55836;49.858;6.756;2022-07-29T11:20:46;2.63;;;1.97;;
68680;SDS011;55836;49.858;6.756;2022-07-29T11:23:31;3.20;;;2.67;;
68680;SDS011;55836;49.858;6.756;2022-07-29T11:26:19;2.23;;;2.03;;
68680;SDS011;55836;49.858;6.756;2022-07-29T11:31:16;2.97;;;2.33;;
68680;SDS011;55836;49.858;6.756;2022-07-29T11:33:57;5.53;;;2.47;;
68680;SDS011;55836;49.858;6.756;2022-07-29T11:39:31;3.43;;;2.40;;
68680;SDS011;55836;49.858;6.756;2022-07-29T11:45:04;4.47;;;2.13;;
68680;SDS011;55836;49.858;6.756;2022-07-29T11:47:33;3.73;;;2.43;;
68680;SDS011;55836;49.858;6.756;2022-07-29T11:50:01;4.00;;;2.10;;
68680;SDS011;55836;49.858;6.756;2022-07-29T11:52:35;4.03;;;2.00;;
68680;SDS011;55836;49.858;6.756;2022-07-29T11:55:07;4.80;;;2.87;;
68680;SDS011;55836;49.858;6.756;2022-07-29T11:57:34;4.50;;;2.77;;
68680;SDS011;55836;49.858;6.756;2022-07-29T12:00:01;5.73;;;2.60;;
68680;SDS011;55836;49.858;6.756;2022-07-29T12:02:40;5.43;;;2.63;;
68680;SDS011;55836;49.858;6.756;2022-07-29T12:05:08;4.73;;;2.33;;
68680;SDS011;55836;49.858;6.756;2022-07-29T12:07:35;2.60;;;2.23;;
68680;SDS011;55836;49.858;6.756;2022-07-29T12:10:24;3.67;;;2.43;;
68680;SDS011;55836;49.858;6.756;2022-07-29T12:12:55;1.97;;;1.87;;
68680;SDS011;55836;49.858;6.756;2022-07-29T12:15:21;4.30;;;2.30;;
68680;SDS011;55836;49.858;6.756;2022-07-29T12:17:48;4.03;;;2.60;;
68680;SDS011;55836;49.858;6.756;2022-07-29T12:20:35;3.33;;;2.40;;
68680;SDS011;55836;49.858;6.756;2022-07-29T12:23:04;4.47;;;2.53;;
68680;SDS011;55836;49.858;6.756;2022-07-29T12:25:32;4.40;;;2.30;;
68680;SDS011;55836;49.858;6.756;2022-07-29T12:28:03;4.97;;;2.50;;
68680;SDS011;55836;49.858;6.756;2022-07-29T12:30:35;3.43;;;2.00;;
68680;SDS011;55836;49.858;6.756;2022-07-29T12:33:14;4.93;;;2.20;;
68680;SDS011;55836;49.858;6.756;2022-07-29T12:35:42;4.30;;;2.27;;
68680;SDS011;55836;49.858;6.756;2022-07-29T12:38:11;3.77;;;2.13;;
68680;SDS011;55836;49.858;6.756;2022-07-29T12:40:38;2.93;;;2.03;;
68680;SDS011;55836;49.858;6.756;2022-07-29T12:43:08;3.13;;;2.27;;
68680;SDS011;55836;49.858;6.756;2022-07-29T12:45:40;2.80;;;2.30;;
68680;SDS011;55836;49.858;6.756;2022-07-29T12:48:07;3.87;;;2.10;;
68680;SDS011;55836;49.858;6.756;2022-07-29T12:50:34;4.90;;;2.70;;
68680;SDS011;55836;49.858;6.756;2022-07-29T12:53:19;2.27;;;1.90;;
68680;SDS011;55836;49.858;6.756;2022-07-29T12:55:46;3.63;;;2.10;;
68680;SDS011;55836;49.858;6.756;2022-07-29T13:01:10;2.83;;;2.13;;
68680;SDS011;55836;49.858;6.756;2022-07-29T13:03:55;3.67;;;2.33;;
68680;SDS011;55836;49.858;6.756;2022-07-29T13:09:00;6.93;;;2.63;;
68680;SDS011;55836;49.858;6.756;2022-07-29T13:11:27;4.77;;;1.93;;
68680;SDS011;55836;49.858;6.756;2022-07-29T13:13:54;3.30;;;2.30;;
68680;SDS011;55836;49.858;6.756;2022-07-29T13:16:19;2.67;;;2.13;;
68680;SDS011;55836;49.858;6.756;2022-07-29T13:18:45;3.47;;;2.33;;
68680;SDS011;55836;49.858;6.756;2022-07-29T13:21:11;4.13;;;2.13;;
68680;SDS011;55836;49.858;6.756;2022-07-29T13:23:40;3.37;;;2.43;;
68680;SDS011;55836;49.858;6.756;2022-07-29T13:26:10;3.40;;;2.00;;
68680;SDS011;55836;49.858;6.756;2022-07-29T13:28:38;2.97;;;2.10;;
68680;SDS011;55836;49.858;6.756;2022-07-29T13:31:04;4.67;;;2.40;;
68680;SDS011;55836;49.858;6.756;2022-07-29T13:33:30;3.13;;;2.30;;
68680;SDS011;55836;49.858;6.756;2022-07-29T13:35:56;4.33;;;2.40;;
68680;SDS011;55836;49.858;6.756;2022-07-29T13:38:22;4.10;;;2.20;;
68680;SDS011;55836;49.858;6.756;2022-07-29T13:40:50;4.30;;;1.80;;
68680;SDS011;55836;49.858;6.756;2022-07-29T13:43:16;2.93;;;2.20;;
68680;SDS011;55836;49.858;6.756;2022-07-29T13:45:42;3.87;;;2.20;;
68680;SDS011;55836;49.858;6.756;2022-07-29T13:48:07;3.07;;;2.27;;
68680;SDS011;55836;49.858;6.756;2022-07-29T13:50:33;3.00;;;2.07;;
68680;SDS011;55836;49.858;6.756;2022-07-29T13:52:59;5.43;;;2.50;;
68680;SDS011;55836;49.858;6.756;2022-07-29T13:55:24;4.97;;;2.13;;
68680;SDS011;55836;49.858;6.756;2022-07-29T13:57:50;2.50;;;1.73;;
68680;SDS011;55836;49.858;6.756;2022-07-29T14:00:16;4.63;;;2.37;;
68680;SDS011;55836;49.858;6.756;2022-07-29T14:02:43;4.77;;;2.40;;
68680;SDS011;55836;49.858;6.756;2022-07-29T14:05:09;2.13;;;1.93;;
68680;SDS011;55836;49.858;6.756;2022-07-29T14:07:35;1.90;;;1.67;;
68680;SDS011;55836;49.858;6.756;2022-07-29T14:10:04;2.70;;;1.97;;
68680;SDS011;55836;49.858;6.756;2022-07-29T14:12:31;4.40;;;2.27;;
68680;SDS011;55836;49.858;6.756;2022-07-29T14:14:56;4.27;;;2.10;;
68680;SDS011;55836;49.858;6.756;2022-07-29T14:17:22;2.53;;;2.03;;
68680;SDS011;55836;49.858;6.756;2022-07-29T14:19:48;3.43;;;2.23;;
68680;SDS011;55836;49.858;6.756;2022-07-29T14:22:14;7.07;;;2.20;;
68680;SDS011;55836;49.858;6.756;2022-07-29T14:24:40;3.13;;;2.10;;
68680;SDS011;55836;49.858;6.756;2022-07-29T14:27:06;5.03;;;2.20;;
68680;SDS011;55836;49.858;6.756;2022-07-29T14:29:32;5.23;;;1.83;;
68680;SDS011;55836;49.858;6.756;2022-07-29T14:31:58;3.70;;;2.20;;
68680;SDS011;55836;49.858;6.756;2022-07-29T14:34:24;4.03;;;1.93;;
68680;SDS011;55836;49.858;6.756;2022-07-29T14:36:49;3.90;;;2.13;;
68680;SDS011;55836;49.858;6.756;2022-07-29T14:39:15;1.90;;;1.57;;
68680;SDS011;55836;49.858;6.756;2022-07-29T14:41:41;4.77;;;1.83;;
68680;SDS011;55836;49.858;6.756;2022-07-29T14:44:07;1.97;;;1.83;;
68680;SDS011;55836;49.858;6.756;2022-07-29T14:46:33;4.87;;;2.63;;
68680;SDS011;55836;49.858;6.756;2022-07-29T14:48:59;4.83;;;2.10;;
68680;SDS011;55836;49.858;6.756;2022-07-29T14:51:25;4.20;;;2.03;;
68680;SDS011;55836;49.858;6.756;2022-07-29T14:53:50;5.37;;;2.53;;
68680;SDS011;55836;49.858;6.756;2022-07-29T14:56:16;2.43;;;2.23;;
68680;SDS011;55836;49.858;6.756;2022-07-29T14:58:42;4.43;;;2.20;;
68680;SDS011;55836;49.858;6.756;2022-07-29T15:01:08;2.67;;;2.07;;
68680;SDS011;55836;49.858;6.756;2022-07-29T15:03:34;3.23;;;2.20;;
68680;SDS011;55836;49.858;6.756;2022-07-29T15:05:59;6.57;;;2.17;;
68680;SDS011;55836;49.858;6.756;2022-07-29T15:08:25;3.10;;;2.20;;
68680;SDS011;55836;49.858;6.756;2022-07-29T15:10:53;3.53;;;1.87;;
68680;SDS011;55836;49.858;6.756;2022-07-29T15:13:19;2.87;;;2.27;;
68680;SDS011;55836;49.858;6.756;2022-07-29T15:15:44;4.47;;;2.37;;
68680;SDS011;55836;49.858;6.756;2022-07-29T15:18:10;4.17;;;2.27;;
68680;SDS011;55836;49.858;6.756;2022-07-29T15:20:36;3.80;;;2.77;;
68680;SDS011;55836;49.858;6.756;2022-07-29T15:23:02;5.47;;;2.53;;
68680;SDS011;55836;49.858;6.756;2022-07-29T15:25:28;4.73;;;2.83;;
68680;SDS011;55836;49.858;6.756;2022-07-29T15:27:53;3.67;;;2.83;;
68680;SDS011;55836;49.858;6.756;2022-07-29T15:30:19;4.87;;;3.20;;
68680;SDS011;55836;49.858;6.756;2022-07-29T15:32:45;4.40;;;2.73;;
68680;SDS011;55836;49.858;6.756;2022-07-29T15:35:11;3.13;;;2.87;;
68680;SDS011;55836;49.858;6.756;2022-07-29T15:37:37;7.27;;;3.53;;
68680;SDS011;55836;49.858;6.756;2022-07-29T15:40:04;6.67;;;3.23;;
68680;SDS011;55836;49.858;6.756;2022-07-29T15:42:31;5.13;;;2.87;;
68680;SDS011;55836;49.858;6.756;2022-07-29T15:45:00;3.73;;;2.97;;
68680;SDS011;55836;49.858;6.756;2022-07-29T15:47:28;4.33;;;3.10;;
68680;SDS011;55836;49.858;6.756;2022-07-29T15:49:53;4.13;;;2.77;;
68680;SDS011;55836;49.858;6.756;2022-07-29T15:52:19;4.33;;;3.33;;
68680;SDS011;55836;49.858;6.756;2022-07-29T15:54:45;3.23;;;2.80;;
68680;SDS011;55836;49.858;6.756;2022-07-29T15:57:11;3.00;;;2.70;;
68680;SDS011;55836;49.858;6.756;2022-07-29T15:59:37;6.90;;;3.70;;